sensor_id;sensor_type;location;lat;lon;timestamp;temperature;humidity
74224;SHT31;62585;49.706;18.216;2022-08-19T00:00:25;21.16;81.34
74224;SHT31;62585;49.706;18.216;2022-08-19T00:03:03;21.19;81.11
74224;SHT31;62585;49.706;18.216;2022-08-19T00:05:30;21.06;81.80
74224;SHT31;62585;49.706;18.216;2022-08-19T00:07:57;21.05;82.00
74224;SHT31;62585;49.706;18.216;2022-08-19T00:10:23;21.03;82.03
74224;SHT31;62585;49.706;18.216;2022-08-19T00:12:50;20.81;82.89
74224;SHT31;62585;49.706;18.216;2022-08-19T00:15:19;21.00;82.06
74224;SHT31;62585;49.706;18.216;2022-08-19T00:17:46;21.02;82.13
74224;SHT31;62585;49.706;18.216;2022-08-19T00:20:12;20.88;82.43
74224;SHT31;62585;49.706;18.216;2022-08-19T00:22:39;20.92;82.16
74224;SHT31;62585;49.706;18.216;2022-08-19T00:25:07;20.89;82.31
74224;SHT31;62585;49.706;18.216;2022-08-19T00:27:34;20.78;82.63
74224;SHT31;62585;49.706;18.216;2022-08-19T00:29:59;20.68;82.65
74224;SHT31;62585;49.706;18.216;2022-08-19T00:32:27;20.52;83.79
74224;SHT31;62585;49.706;18.216;2022-08-19T00:34:53;20.55;83.68
74224;SHT31;62585;49.706;18.216;2022-08-19T00:37:21;20.60;83.56
74224;SHT31;62585;49.706;18.216;2022-08-19T00:39:49;20.61;83.80
74224;SHT31;62585;49.706;18.216;2022-08-19T00:42:19;20.64;83.56
74224;SHT31;62585;49.706;18.216;2022-08-19T00:44:46;20.64;83.49
74224;SHT31;62585;49.706;18.216;2022-08-19T00:47:13;20.67;82.99
74224;SHT31;62585;49.706;18.216;2022-08-19T00:49:50;20.41;85.00
74224;SHT31;62585;49.706;18.216;2022-08-19T00:52:28;20.39;84.68
74224;SHT31;62585;49.706;18.216;2022-08-19T00:54:57;20.29;85.58
74224;SHT31;62585;49.706;18.216;2022-08-19T00:57:35;20.29;86.04
74224;SHT31;62585;49.706;18.216;2022-08-19T01:00:05;20.36;85.72
74224;SHT31;62585;49.706;18.216;2022-08-19T01:02:32;20.29;85.73
74224;SHT31;62585;49.706;18.216;2022-08-19T01:05:00;20.39;85.41
74224;SHT31;62585;49.706;18.216;2022-08-19T01:07:26;20.29;85.29
74224;SHT31;62585;49.706;18.216;2022-08-19T01:09:52;19.99;85.84
74224;SHT31;62585;49.706;18.216;2022-08-19T01:12:19;20.03;85.75
74224;SHT31;62585;49.706;18.216;2022-08-19T01:14:45;19.89;86.97
74224;SHT31;62585;49.706;18.216;2022-08-19T01:17:12;19.95;86.66
74224;SHT31;62585;49.706;18.216;2022-08-19T01:19:41;20.08;86.21
74224;SHT31;62585;49.706;18.216;2022-08-19T01:24:50;20.19;85.50
74224;SHT31;62585;49.706;18.216;2022-08-19T01:27:17;20.24;85.20
74224;SHT31;62585;49.706;18.216;2022-08-19T01:29:44;20.26;84.76
74224;SHT31;62585;49.706;18.216;2022-08-19T01:32:15;20.30;84.51
74224;SHT31;62585;49.706;18.216;2022-08-19T01:34:41;20.39;84.19
74224;SHT31;62585;49.706;18.216;2022-08-19T01:37:09;20.30;85.19
74224;SHT31;62585;49.706;18.216;2022-08-19T01:39:38;20.36;84.62
74224;SHT31;62585;49.706;18.216;2022-08-19T01:42:06;20.36;84.70
74224;SHT31;62585;49.706;18.216;2022-08-19T01:44:35;20.45;84.54
74224;SHT31;62585;49.706;18.216;2022-08-19T01:47:02;20.45;84.73
74224;SHT31;62585;49.706;18.216;2022-08-19T01:49:29;20.39;84.49
74224;SHT31;62585;49.706;18.216;2022-08-19T01:51:55;20.32;84.84
74224;SHT31;62585;49.706;18.216;2022-08-19T01:54:22;20.30;84.91
74224;SHT31;62585;49.706;18.216;2022-08-19T01:56:51;20.29;85.10
74224;SHT31;62585;49.706;18.216;2022-08-19T01:59:20;20.29;84.91
74224;SHT31;62585;49.706;18.216;2022-08-19T02:01:48;20.32;84.49
74224;SHT31;62585;49.706;18.216;2022-08-19T02:04:15;20.30;84.47
74224;SHT31;62585;49.706;18.216;2022-08-19T02:06:41;20.23;84.71
74224;SHT31;62585;49.706;18.216;2022-08-19T02:09:10;20.14;84.98
74224;SHT31;62585;49.706;18.216;2022-08-19T02:11:38;20.14;85.26
74224;SHT31;62585;49.706;18.216;2022-08-19T02:14:07;20.19;85.39
74224;SHT31;62585;49.706;18.216;2022-08-19T02:16:34;20.12;85.47
74224;SHT31;62585;49.706;18.216;2022-08-19T02:19:00;20.17;85.45
74224;SHT31;62585;49.706;18.216;2022-08-19T02:21:27;20.14;85.32
74224;SHT31;62585;49.706;18.216;2022-08-19T02:23:53;20.03;86.37
74224;SHT31;62585;49.706;18.216;2022-08-19T02:26:19;20.09;86.44
74224;SHT31;62585;49.706;18.216;2022-08-19T02:28:45;20.19;86.26
74224;SHT31;62585;49.706;18.216;2022-08-19T02:31:13;20.20;86.43
74224;SHT31;62585;49.706;18.216;2022-08-19T02:33:43;20.23;86.16
74224;SHT31;62585;49.706;18.216;2022-08-19T02:36:11;20.23;86.19
74224;SHT31;62585;49.706;18.216;2022-08-19T02:38:38;20.24;86.00
74224;SHT31;62585;49.706;18.216;2022-08-19T02:41:06;20.24;86.28
74224;SHT31;62585;49.706;18.216;2022-08-19T02:43:33;20.27;85.54
74224;SHT31;62585;49.706;18.216;2022-08-19T02:46:11;20.24;85.73
74224;SHT31;62585;49.706;18.216;2022-08-19T02:48:37;20.24;85.41
74224;SHT31;62585;49.706;18.216;2022-08-19T02:51:03;20.12;86.19
74224;SHT31;62585;49.706;18.216;2022-08-19T02:53:30;20.13;85.94
74224;SHT31;62585;49.706;18.216;2022-08-19T02:55:56;20.13;85.76
74224;SHT31;62585;49.706;18.216;2022-08-19T02:58:23;20.08;86.05
74224;SHT31;62585;49.706;18.216;2022-08-19T03:00:51;19.97;86.29
74224;SHT31;62585;49.706;18.216;2022-08-19T03:03:18;19.99;86.35
74224;SHT31;62585;49.706;18.216;2022-08-19T03:05:44;19.95;86.39
74224;SHT31;62585;49.706;18.216;2022-08-19T03:08:11;19.95;86.43
74224;SHT31;62585;49.706;18.216;2022-08-19T03:10:46;19.82;86.61
74224;SHT31;62585;49.706;18.216;2022-08-19T03:13:14;19.81;86.00
74224;SHT31;62585;49.706;18.216;2022-08-19T03:15:43;19.85;85.46
74224;SHT31;62585;49.706;18.216;2022-08-19T03:18:09;19.66;86.14
74224;SHT31;62585;49.706;18.216;2022-08-19T03:20:48;19.65;87.18
74224;SHT31;62585;49.706;18.216;2022-08-19T03:23:15;19.69;86.95
74224;SHT31;62585;49.706;18.216;2022-08-19T03:25:45;19.78;86.64
74224;SHT31;62585;49.706;18.216;2022-08-19T03:28:12;19.81;86.25
74224;SHT31;62585;49.706;18.216;2022-08-19T03:30:40;19.75;86.70
74224;SHT31;62585;49.706;18.216;2022-08-19T03:33:10;19.76;86.31
74224;SHT31;62585;49.706;18.216;2022-08-19T03:35:37;19.66;86.57
74224;SHT31;62585;49.706;18.216;2022-08-19T03:38:05;19.68;86.80
74224;SHT31;62585;49.706;18.216;2022-08-19T03:40:32;19.71;87.13
74224;SHT31;62585;49.706;18.216;2022-08-19T03:43:01;19.71;87.71
74224;SHT31;62585;49.706;18.216;2022-08-19T03:45:28;19.79;87.89
74224;SHT31;62585;49.706;18.216;2022-08-19T03:47:54;19.89;87.62
74224;SHT31;62585;49.706;18.216;2022-08-19T03:50:20;19.87;87.54
74224;SHT31;62585;49.706;18.216;2022-08-19T03:52:50;19.96;87.97
74224;SHT31;62585;49.706;18.216;2022-08-19T03:55:17;20.03;87.39
74224;SHT31;62585;49.706;18.216;2022-08-19T03:57:43;20.08;87.09
74224;SHT31;62585;49.706;18.216;2022-08-19T04:00:11;20.17;86.69
74224;SHT31;62585;49.706;18.216;2022-08-19T04:02:37;20.23;86.50
74224;SHT31;62585;49.706;18.216;2022-08-19T04:05:03;20.19;86.83
74224;SHT31;62585;49.706;18.216;2022-08-19T04:07:30;20.09;87.35
74224;SHT31;62585;49.706;18.216;2022-08-19T04:09:56;20.09;87.49
74224;SHT31;62585;49.706;18.216;2022-08-19T04:12:22;19.97;88.14
74224;SHT31;62585;49.706;18.216;2022-08-19T04:14:48;20.06;87.82
74224;SHT31;62585;49.706;18.216;2022-08-19T04:17:15;20.12;87.64
74224;SHT31;62585;49.706;18.216;2022-08-19T04:19:43;20.16;87.44
74224;SHT31;62585;49.706;18.216;2022-08-19T04:22:09;20.19;86.94
74224;SHT31;62585;49.706;18.216;2022-08-19T04:24:36;20.19;87.02
74224;SHT31;62585;49.706;18.216;2022-08-19T04:27:02;20.30;86.49
74224;SHT31;62585;49.706;18.216;2022-08-19T04:29:29;20.37;86.07
74224;SHT31;62585;49.706;18.216;2022-08-19T04:31:56;20.45;85.86
74224;SHT31;62585;49.706;18.216;2022-08-19T04:34:25;20.51;85.84
74224;SHT31;62585;49.706;18.216;2022-08-19T04:36:53;20.54;85.52
74224;SHT31;62585;49.706;18.216;2022-08-19T04:39:22;20.50;85.78
74224;SHT31;62585;49.706;18.216;2022-08-19T04:41:48;20.50;85.83
74224;SHT31;62585;49.706;18.216;2022-08-19T04:44:34;20.41;86.22
74224;SHT31;62585;49.706;18.216;2022-08-19T04:47:01;20.57;85.23
74224;SHT31;62585;49.706;18.216;2022-08-19T04:49:31;20.74;84.36
74224;SHT31;62585;49.706;18.216;2022-08-19T04:51:57;20.95;83.93
74224;SHT31;62585;49.706;18.216;2022-08-19T04:54:24;21.02;83.41
74224;SHT31;62585;49.706;18.216;2022-08-19T04:56:52;21.05;84.07
74224;SHT31;62585;49.706;18.216;2022-08-19T04:59:19;21.06;83.92
74224;SHT31;62585;49.706;18.216;2022-08-19T05:01:46;21.12;83.85
74224;SHT31;62585;49.706;18.216;2022-08-19T05:04:16;21.27;82.97
74224;SHT31;62585;49.706;18.216;2022-08-19T05:06:43;21.33;83.40
74224;SHT31;62585;49.706;18.216;2022-08-19T05:09:09;21.39;83.32
74224;SHT31;62585;49.706;18.216;2022-08-19T05:11:36;21.45;83.27
74224;SHT31;62585;49.706;18.216;2022-08-19T05:14:10;21.45;82.31
74224;SHT31;62585;49.706;18.216;2022-08-19T05:16:38;21.43;81.35
74224;SHT31;62585;49.706;18.216;2022-08-19T05:19:04;21.66;80.15
74224;SHT31;62585;49.706;18.216;2022-08-19T05:21:48;21.87;80.02
74224;SHT31;62585;49.706;18.216;2022-08-19T05:24:33;22.01;80.97
74224;SHT31;62585;49.706;18.216;2022-08-19T05:27:00;22.13;81.20
74224;SHT31;62585;49.706;18.216;2022-08-19T05:29:29;22.22;81.44
74224;SHT31;62585;49.706;18.216;2022-08-19T05:31:57;22.23;80.50
74224;SHT31;62585;49.706;18.216;2022-08-19T05:34:25;22.23;80.62
74224;SHT31;62585;49.706;18.216;2022-08-19T05:36:56;22.28;80.59
74224;SHT31;62585;49.706;18.216;2022-08-19T05:39:25;22.40;79.96
74224;SHT31;62585;49.706;18.216;2022-08-19T05:42:00;22.55;79.52
74224;SHT31;62585;49.706;18.216;2022-08-19T05:44:28;22.74;79.61
74224;SHT31;62585;49.706;18.216;2022-08-19T05:46:58;22.88;76.37
74224;SHT31;62585;49.706;18.216;2022-08-19T05:49:26;22.98;74.61
74224;SHT31;62585;49.706;18.216;2022-08-19T05:51:53;23.08;74.45
74224;SHT31;62585;49.706;18.216;2022-08-19T05:54:21;23.29;71.40
74224;SHT31;62585;49.706;18.216;2022-08-19T05:56:50;23.52;71.01
74224;SHT31;62585;49.706;18.216;2022-08-19T05:59:16;23.70;71.72
74224;SHT31;62585;49.706;18.216;2022-08-19T06:01:45;23.82;71.06
74224;SHT31;62585;49.706;18.216;2022-08-19T06:04:12;23.80;71.39
74224;SHT31;62585;49.706;18.216;2022-08-19T06:06:44;23.97;72.16
74224;SHT31;62585;49.706;18.216;2022-08-19T06:09:10;24.06;71.49
74224;SHT31;62585;49.706;18.216;2022-08-19T06:11:42;24.13;69.55
74224;SHT31;62585;49.706;18.216;2022-08-19T06:14:18;24.32;69.33
74224;SHT31;62585;49.706;18.216;2022-08-19T06:16:45;24.58;67.95
74224;SHT31;62585;49.706;18.216;2022-08-19T06:19:16;24.68;66.58
74224;SHT31;62585;49.706;18.216;2022-08-19T06:21:44;24.92;67.38
74224;SHT31;62585;49.706;18.216;2022-08-19T06:24:13;25.00;65.83
74224;SHT31;62585;49.706;18.216;2022-08-19T06:26:42;25.09;65.45
74224;SHT31;62585;49.706;18.216;2022-08-19T06:29:14;25.20;65.60
74224;SHT31;62585;49.706;18.216;2022-08-19T06:31:46;25.38;64.66
74224;SHT31;62585;49.706;18.216;2022-08-19T06:34:12;25.54;64.41
74224;SHT31;62585;49.706;18.216;2022-08-19T06:36:40;25.74;64.27
74224;SHT31;62585;49.706;18.216;2022-08-19T06:39:12;25.89;63.77
74224;SHT31;62585;49.706;18.216;2022-08-19T06:41:42;26.12;63.31
74224;SHT31;62585;49.706;18.216;2022-08-19T06:44:08;26.16;62.86
74224;SHT31;62585;49.706;18.216;2022-08-19T06:46:35;26.16;63.20
74224;SHT31;62585;49.706;18.216;2022-08-19T06:49:02;26.19;63.04
74224;SHT31;62585;49.706;18.216;2022-08-19T06:51:28;26.30;63.09
74224;SHT31;62585;49.706;18.216;2022-08-19T06:53:54;26.53;62.53
74224;SHT31;62585;49.706;18.216;2022-08-19T06:56:31;26.60;62.29
74224;SHT31;62585;49.706;18.216;2022-08-19T06:59:12;26.80;61.77
74224;SHT31;62585;49.706;18.216;2022-08-19T07:01:59;26.83;61.83
74224;SHT31;62585;49.706;18.216;2022-08-19T07:04:28;26.92;61.05
74224;SHT31;62585;49.706;18.216;2022-08-19T07:07:09;27.06;62.46
74224;SHT31;62585;49.706;18.216;2022-08-19T07:09:37;27.31;61.62
74224;SHT31;62585;49.706;18.216;2022-08-19T07:12:06;27.38;61.37
74224;SHT31;62585;49.706;18.216;2022-08-19T07:14:33;27.63;60.02
74224;SHT31;62585;49.706;18.216;2022-08-19T07:17:05;27.89;57.87
74224;SHT31;62585;49.706;18.216;2022-08-19T07:19:32;28.17;57.97
74224;SHT31;62585;49.706;18.216;2022-08-19T07:21:58;28.32;57.55
74224;SHT31;62585;49.706;18.216;2022-08-19T07:24:27;28.58;57.60
74224;SHT31;62585;49.706;18.216;2022-08-19T07:26:56;28.73;56.44
74224;SHT31;62585;49.706;18.216;2022-08-19T07:29:33;28.62;57.85
74224;SHT31;62585;49.706;18.216;2022-08-19T07:32:00;28.69;57.02
74224;SHT31;62585;49.706;18.216;2022-08-19T07:34:28;28.83;55.93
74224;SHT31;62585;49.706;18.216;2022-08-19T07:36:55;28.93;55.78
74224;SHT31;62585;49.706;18.216;2022-08-19T07:39:29;29.04;54.99
74224;SHT31;62585;49.706;18.216;2022-08-19T07:41:57;29.27;54.86
74224;SHT31;62585;49.706;18.216;2022-08-19T07:44:23;29.44;55.08
74224;SHT31;62585;49.706;18.216;2022-08-19T07:46:54;29.41;54.82
74224;SHT31;62585;49.706;18.216;2022-08-19T07:49:22;29.21;55.03
74224;SHT31;62585;49.706;18.216;2022-08-19T07:51:53;29.20;55.84
74224;SHT31;62585;49.706;18.216;2022-08-19T07:54:20;28.96;54.71
74224;SHT31;62585;49.706;18.216;2022-08-19T07:56:46;28.82;54.73
74224;SHT31;62585;49.706;18.216;2022-08-19T07:59:13;28.83;53.01
74224;SHT31;62585;49.706;18.216;2022-08-19T08:01:39;28.89;52.99
74224;SHT31;62585;49.706;18.216;2022-08-19T08:04:06;28.96;52.06
74224;SHT31;62585;49.706;18.216;2022-08-19T08:06:52;29.07;54.57
74224;SHT31;62585;49.706;18.216;2022-08-19T08:09:39;29.27;55.13
74224;SHT31;62585;49.706;18.216;2022-08-19T08:12:12;29.39;53.00
74224;SHT31;62585;49.706;18.216;2022-08-19T08:14:45;29.45;54.44
74224;SHT31;62585;49.706;18.216;2022-08-19T08:17:14;29.71;53.88
74224;SHT31;62585;49.706;18.216;2022-08-19T08:19:41;29.92;50.78
74224;SHT31;62585;49.706;18.216;2022-08-19T08:22:07;29.93;51.45
74224;SHT31;62585;49.706;18.216;2022-08-19T08:24:35;29.99;50.26
74224;SHT31;62585;49.706;18.216;2022-08-19T08:27:01;30.05;51.12
74224;SHT31;62585;49.706;18.216;2022-08-19T08:29:30;30.23;53.48
74224;SHT31;62585;49.706;18.216;2022-08-19T08:31:57;30.30;51.96
74224;SHT31;62585;49.706;18.216;2022-08-19T08:34:26;30.29;51.27
74224;SHT31;62585;49.706;18.216;2022-08-19T08:36:52;30.58;49.43
74224;SHT31;62585;49.706;18.216;2022-08-19T08:39:20;30.78;48.72
74224;SHT31;62585;49.706;18.216;2022-08-19T08:44:23;31.37;47.73
74224;SHT31;62585;49.706;18.216;2022-08-19T08:46:59;31.69;47.03
74224;SHT31;62585;49.706;18.216;2022-08-19T08:49:59;31.71;42.60
74224;SHT31;62585;49.706;18.216;2022-08-19T08:52:35;30.96;42.41
74224;SHT31;62585;49.706;18.216;2022-08-19T08:55:10;30.68;44.28
74224;SHT31;62585;49.706;18.216;2022-08-19T08:58:06;31.06;44.18
74224;SHT31;62585;49.706;18.216;2022-08-19T09:00:37;30.78;43.18
74224;SHT31;62585;49.706;18.216;2022-08-19T09:03:11;31.02;44.01
74224;SHT31;62585;49.706;18.216;2022-08-19T09:05:47;31.06;42.93
74224;SHT31;62585;49.706;18.216;2022-08-19T09:11:03;31.60;43.17
74224;SHT31;62585;49.706;18.216;2022-08-19T09:13:40;31.85;42.19
74224;SHT31;62585;49.706;18.216;2022-08-19T09:16:20;31.90;42.56
74224;SHT31;62585;49.706;18.216;2022-08-19T09:18:52;32.15;42.21
74224;SHT31;62585;49.706;18.216;2022-08-19T09:21:21;32.39;40.16
74224;SHT31;62585;49.706;18.216;2022-08-19T09:23:48;32.79;40.95
74224;SHT31;62585;49.706;18.216;2022-08-19T09:26:18;32.70;39.47
74224;SHT31;62585;49.706;18.216;2022-08-19T09:28:47;32.63;39.39
74224;SHT31;62585;49.706;18.216;2022-08-19T09:31:15;32.73;39.28
74224;SHT31;62585;49.706;18.216;2022-08-19T09:33:42;32.45;39.79
74224;SHT31;62585;49.706;18.216;2022-08-19T09:36:15;32.79;40.12
74224;SHT31;62585;49.706;18.216;2022-08-19T09:38:41;33.18;38.77
74224;SHT31;62585;49.706;18.216;2022-08-19T09:41:14;33.20;38.45
74224;SHT31;62585;49.706;18.216;2022-08-19T09:43:42;33.10;38.05
74224;SHT31;62585;49.706;18.216;2022-08-19T09:46:09;32.72;39.37
74224;SHT31;62585;49.706;18.216;2022-08-19T09:48:36;33.06;40.11
74224;SHT31;62585;49.706;18.216;2022-08-19T09:51:04;33.11;38.97
74224;SHT31;62585;49.706;18.216;2022-08-19T09:53:30;33.21;38.02
74224;SHT31;62585;49.706;18.216;2022-08-19T09:55:56;33.27;38.48
74224;SHT31;62585;49.706;18.216;2022-08-19T09:58:22;33.15;37.43
74224;SHT31;62585;49.706;18.216;2022-08-19T10:00:57;33.25;39.34
74224;SHT31;62585;49.706;18.216;2022-08-19T10:03:24;33.58;37.81
74224;SHT31;62585;49.706;18.216;2022-08-19T10:05:50;33.68;36.92
74224;SHT31;62585;49.706;18.216;2022-08-19T10:08:20;33.27;38.09
74224;SHT31;62585;49.706;18.216;2022-08-19T10:10:47;33.31;38.63
74224;SHT31;62585;49.706;18.216;2022-08-19T10:13:15;32.90;37.43
74224;SHT31;62585;49.706;18.216;2022-08-19T10:15:41;33.57;37.56
74224;SHT31;62585;49.706;18.216;2022-08-19T10:18:07;33.73;36.52
74224;SHT31;62585;49.706;18.216;2022-08-19T10:20:34;33.75;36.33
74224;SHT31;62585;49.706;18.216;2022-08-19T10:23:02;33.62;37.14
74224;SHT31;62585;49.706;18.216;2022-08-19T10:25:29;34.20;36.41
74224;SHT31;62585;49.706;18.216;2022-08-19T10:27:55;34.16;35.84
74224;SHT31;62585;49.706;18.216;2022-08-19T10:30:20;33.92;37.22
74224;SHT31;62585;49.706;18.216;2022-08-19T10:32:47;33.97;36.48
74224;SHT31;62585;49.706;18.216;2022-08-19T10:35:13;33.58;37.63
74224;SHT31;62585;49.706;18.216;2022-08-19T10:37:39;33.99;36.84
74224;SHT31;62585;49.706;18.216;2022-08-19T10:40:08;34.55;36.63
74224;SHT31;62585;49.706;18.216;2022-08-19T10:42:36;34.72;35.67
74224;SHT31;62585;49.706;18.216;2022-08-19T10:45:03;35.05;36.29
74224;SHT31;62585;49.706;18.216;2022-08-19T10:47:32;34.51;35.44
74224;SHT31;62585;49.706;18.216;2022-08-19T10:49:58;35.13;36.08
74224;SHT31;62585;49.706;18.216;2022-08-19T10:52:47;34.70;35.04
74224;SHT31;62585;49.706;18.216;2022-08-19T10:55:13;34.96;36.16
74224;SHT31;62585;49.706;18.216;2022-08-19T10:57:57;35.28;34.80
74224;SHT31;62585;49.706;18.216;2022-08-19T11:00:24;35.57;34.38
74224;SHT31;62585;49.706;18.216;2022-08-19T11:02:51;35.33;34.42
74224;SHT31;62585;49.706;18.216;2022-08-19T11:05:18;35.13;35.72
74224;SHT31;62585;49.706;18.216;2022-08-19T11:07:45;34.47;36.76
74224;SHT31;62585;49.706;18.216;2022-08-19T11:10:13;34.27;36.72
74224;SHT31;62585;49.706;18.216;2022-08-19T11:12:43;34.61;35.01
74224;SHT31;62585;49.706;18.216;2022-08-19T11:15:17;34.48;35.79
74224;SHT31;62585;49.706;18.216;2022-08-19T11:17:43;34.30;35.92
74224;SHT31;62585;49.706;18.216;2022-08-19T11:20:13;34.30;36.19
74224;SHT31;62585;49.706;18.216;2022-08-19T11:22:40;34.39;36.22
74224;SHT31;62585;49.706;18.216;2022-08-19T11:25:08;34.03;37.06
74224;SHT31;62585;49.706;18.216;2022-08-19T11:27:38;34.95;36.33
74224;SHT31;62585;49.706;18.216;2022-08-19T11:30:05;34.80;35.52
74224;SHT31;62585;49.706;18.216;2022-08-19T11:32:33;35.09;34.21
74224;SHT31;62585;49.706;18.216;2022-08-19T11:34:59;34.82;34.14
74224;SHT31;62585;49.706;18.216;2022-08-19T11:37:25;35.50;34.73
74224;SHT31;62585;49.706;18.216;2022-08-19T11:39:51;35.70;33.10
74224;SHT31;62585;49.706;18.216;2022-08-19T11:42:17;36.01;32.81
74224;SHT31;62585;49.706;18.216;2022-08-19T11:45:02;36.43;32.78
74224;SHT31;62585;49.706;18.216;2022-08-19T11:47:29;36.49;32.30
74224;SHT31;62585;49.706;18.216;2022-08-19T11:49:56;35.29;33.94
74224;SHT31;62585;49.706;18.216;2022-08-19T11:52:22;35.05;34.10
74224;SHT31;62585;49.706;18.216;2022-08-19T11:54:48;35.77;34.68
74224;SHT31;62585;49.706;18.216;2022-08-19T11:57:14;36.52;32.66
74224;SHT31;62585;49.706;18.216;2022-08-19T11:59:48;36.65;32.38
74224;SHT31;62585;49.706;18.216;2022-08-19T12:02:14;36.24;32.59
74224;SHT31;62585;49.706;18.216;2022-08-19T12:04:40;36.12;33.66
74224;SHT31;62585;49.706;18.216;2022-08-19T12:07:06;35.64;33.39
74224;SHT31;62585;49.706;18.216;2022-08-19T12:09:33;35.78;34.71
74224;SHT31;62585;49.706;18.216;2022-08-19T12:12:01;35.66;33.75
74224;SHT31;62585;49.706;18.216;2022-08-19T12:14:28;35.94;33.03
74224;SHT31;62585;49.706;18.216;2022-08-19T12:16:56;35.23;33.46
74224;SHT31;62585;49.706;18.216;2022-08-19T12:19:22;36.05;33.39
74224;SHT31;62585;49.706;18.216;2022-08-19T12:21:51;35.91;32.89
74224;SHT31;62585;49.706;18.216;2022-08-19T12:24:18;35.83;32.59
74224;SHT31;62585;49.706;18.216;2022-08-19T12:26:49;35.85;34.41
74224;SHT31;62585;49.706;18.216;2022-08-19T12:29:15;35.77;32.74
74224;SHT31;62585;49.706;18.216;2022-08-19T12:31:41;35.16;33.18
74224;SHT31;62585;49.706;18.216;2022-08-19T12:34:06;35.19;32.75
74224;SHT31;62585;49.706;18.216;2022-08-19T12:36:32;34.94;33.43
74224;SHT31;62585;49.706;18.216;2022-08-19T12:38:59;34.98;34.98
74224;SHT31;62585;49.706;18.216;2022-08-19T12:41:27;35.46;34.49
74224;SHT31;62585;49.706;18.216;2022-08-19T12:43:54;34.71;35.03
74224;SHT31;62585;49.706;18.216;2022-08-19T12:46:19;34.70;35.36
74224;SHT31;62585;49.706;18.216;2022-08-19T12:48:46;34.30;35.40
74224;SHT31;62585;49.706;18.216;2022-08-19T12:51:15;34.80;36.10
74224;SHT31;62585;49.706;18.216;2022-08-19T12:53:41;34.94;34.45
74224;SHT31;62585;49.706;18.216;2022-08-19T12:56:08;35.32;35.36
74224;SHT31;62585;49.706;18.216;2022-08-19T12:58:35;35.05;34.68
74224;SHT31;62585;49.706;18.216;2022-08-19T13:01:13;35.57;32.32
74224;SHT31;62585;49.706;18.216;2022-08-19T13:03:39;35.78;32.54
74224;SHT31;62585;49.706;18.216;2022-08-19T13:06:07;36.31;32.24
74224;SHT31;62585;49.706;18.216;2022-08-19T13:08:33;35.74;33.30
74224;SHT31;62585;49.706;18.216;2022-08-19T13:11:07;36.08;32.22
74224;SHT31;62585;49.706;18.216;2022-08-19T13:13:33;35.12;34.29
74224;SHT31;62585;49.706;18.216;2022-08-19T13:16:02;36.35;32.56
74224;SHT31;62585;49.706;18.216;2022-08-19T13:18:29;36.72;32.61
74224;SHT31;62585;49.706;18.216;2022-08-19T13:20:55;36.69;32.72
74224;SHT31;62585;49.706;18.216;2022-08-19T13:23:21;37.25;31.83
74224;SHT31;62585;49.706;18.216;2022-08-19T13:26:02;36.93;32.07
74224;SHT31;62585;49.706;18.216;2022-08-19T13:28:29;36.87;31.38
74224;SHT31;62585;49.706;18.216;2022-08-19T13:31:19;36.73;32.35
74224;SHT31;62585;49.706;18.216;2022-08-19T13:34:05;36.96;32.90
74224;SHT31;62585;49.706;18.216;2022-08-19T13:36:35;37.20;32.53
74224;SHT31;62585;49.706;18.216;2022-08-19T13:39:01;37.20;32.93
74224;SHT31;62585;49.706;18.216;2022-08-19T13:41:27;37.01;32.21
74224;SHT31;62585;49.706;18.216;2022-08-19T13:43:54;37.27;32.38
74224;SHT31;62585;49.706;18.216;2022-08-19T13:46:19;37.61;32.18
74224;SHT31;62585;49.706;18.216;2022-08-19T13:48:46;37.58;31.28
74224;SHT31;62585;49.706;18.216;2022-08-19T13:51:14;36.98;31.94
74224;SHT31;62585;49.706;18.216;2022-08-19T13:53:42;37.25;31.40
74224;SHT31;62585;49.706;18.216;2022-08-19T13:56:11;36.89;33.26
74224;SHT31;62585;49.706;18.216;2022-08-19T13:58:37;36.52;33.26
74224;SHT31;62585;49.706;18.216;2022-08-19T14:01:04;36.11;34.56
74224;SHT31;62585;49.706;18.216;2022-08-19T14:03:31;36.70;32.83
74224;SHT31;62585;49.706;18.216;2022-08-19T14:05:58;37.58;31.15
74224;SHT31;62585;49.706;18.216;2022-08-19T14:08:24;38.12;31.06
74224;SHT31;62585;49.706;18.216;2022-08-19T14:10:50;37.28;33.02
74224;SHT31;62585;49.706;18.216;2022-08-19T14:13:18;36.11;33.60
74224;SHT31;62585;49.706;18.216;2022-08-19T14:15:45;35.80;34.98
74224;SHT31;62585;49.706;18.216;2022-08-19T14:18:11;35.67;34.29
74224;SHT31;62585;49.706;18.216;2022-08-19T14:20:37;35.66;35.36
74224;SHT31;62585;49.706;18.216;2022-08-19T14:23:03;35.60;35.05
74224;SHT31;62585;49.706;18.216;2022-08-19T14:25:33;35.72;35.90
74224;SHT31;62585;49.706;18.216;2022-08-19T14:28:00;35.47;36.30
74224;SHT31;62585;49.706;18.216;2022-08-19T14:30:32;35.60;36.58
74224;SHT31;62585;49.706;18.216;2022-08-19T14:33:00;35.43;35.71
74224;SHT31;62585;49.706;18.216;2022-08-19T14:35:29;34.95;35.53
74224;SHT31;62585;49.706;18.216;2022-08-19T14:37:56;34.80;36.05
74224;SHT31;62585;49.706;18.216;2022-08-19T14:40:27;34.84;35.93
74224;SHT31;62585;49.706;18.216;2022-08-19T14:43:01;34.72;36.03
74224;SHT31;62585;49.706;18.216;2022-08-19T14:45:34;33.99;37.79
74224;SHT31;62585;49.706;18.216;2022-08-19T14:48:01;33.99;37.28
74224;SHT31;62585;49.706;18.216;2022-08-19T14:50:28;33.73;38.60
74224;SHT31;62585;49.706;18.216;2022-08-19T14:52:59;33.68;37.75
74224;SHT31;62585;49.706;18.216;2022-08-19T14:55:26;33.57;38.49
74224;SHT31;62585;49.706;18.216;2022-08-19T14:57:52;33.15;38.50
74224;SHT31;62585;49.706;18.216;2022-08-19T15:00:18;33.08;39.44
74224;SHT31;62585;49.706;18.216;2022-08-19T15:02:44;33.13;39.46
74224;SHT31;62585;49.706;18.216;2022-08-19T15:05:11;33.20;39.75
74224;SHT31;62585;49.706;18.216;2022-08-19T15:07:37;33.03;39.48
74224;SHT31;62585;49.706;18.216;2022-08-19T15:10:05;33.10;40.31
74224;SHT31;62585;49.706;18.216;2022-08-19T15:12:34;33.21;40.24
74224;SHT31;62585;49.706;18.216;2022-08-19T15:15:00;32.51;40.19
74224;SHT31;62585;49.706;18.216;2022-08-19T15:17:26;31.67;41.97
74224;SHT31;62585;49.706;18.216;2022-08-19T15:19:52;31.23;42.99
74224;SHT31;62585;49.706;18.216;2022-08-19T15:22:18;31.23;43.83
74224;SHT31;62585;49.706;18.216;2022-08-19T15:24:43;31.29;43.72
74224;SHT31;62585;49.706;18.216;2022-08-19T15:27:12;31.33;42.95
74224;SHT31;62585;49.706;18.216;2022-08-19T15:29:38;31.18;45.11
74224;SHT31;62585;49.706;18.216;2022-08-19T15:32:06;30.84;45.88